createdAt,value
2022-09-28T00:02:59.389Z,87.21
2022-09-28T00:05:09.494Z,87.47
2022-09-28T00:07:49.866Z,88.73
2022-09-28T00:10:27.437Z,88.35
2022-09-28T00:13:20.224Z,88.36
2022-09-28T00:15:47.522Z,88.92
2022-09-28T00:18:15.202Z,88.83
2022-09-28T00:20:42.466Z,88.57
2022-09-28T00:23:12.037Z,88.47
2022-09-28T00:25:39.384Z,88.61
2022-09-28T00:29:53.199Z,88.41
2022-09-28T00:31:09.515Z,88.82
2022-09-28T00:33:53.663Z,89.21
2022-09-28T00:36:28.953Z,89.09
2022-09-28T00:39:24.040Z,89.09
2022-09-28T00:42:15.462Z,90.73
2022-09-28T00:44:53.114Z,91.35
2022-09-28T00:47:57.545Z,92.23
2022-09-28T00:50:52.066Z,90.73
2022-09-28T00:56:25.561Z,90.25
2022-09-28T00:59:15.088Z,90.06
2022-09-28T01:02:40.442Z,89.84
2022-09-28T01:05:04.419Z,89.50
2022-09-28T01:07:52.343Z,89.78
2022-09-28T01:11:00.242Z,89.51
2022-09-28T01:14:02.994Z,88.90
2022-09-28T01:17:02.983Z,89.53
2022-09-28T01:19:54.864Z,88.25
2022-09-28T01:23:05.742Z,89.61
2022-09-28T01:26:04.154Z,88.97
2022-09-28T01:28:34.582Z,88.90
2022-09-28T01:31:20.973Z,88.64
2022-09-28T01:34:00.714Z,89.21
2022-09-28T01:36:31.183Z,88.81
2022-09-28T01:39:07.100Z,89.01
2022-09-28T01:41:44.022Z,89.43
2022-09-28T01:57:17.081Z,92.34
2022-09-28T02:06:05.032Z,93.23
2022-09-28T02:08:44.721Z,93.31
2022-09-28T02:11:20.004Z,93.71
2022-09-28T02:14:12.666Z,93.61
2022-09-28T02:16:45.222Z,93.13
2022-09-28T02:19:24.984Z,92.47
2022-09-28T02:22:17.117Z,92.78
2022-09-28T02:25:11.063Z,92.18
2022-09-28T02:28:00.280Z,91.67
2022-09-28T02:30:28.265Z,91.49
2022-09-28T02:33:00.286Z,91.62
2022-09-28T02:35:27.619Z,92.18
2022-09-28T02:37:55.578Z,92.10
2022-09-28T02:40:29.415Z,91.74
2022-09-28T02:43:14.664Z,92.05
2022-09-28T02:46:15.695Z,91.90
2022-09-28T02:49:22.403Z,91.39
2022-09-28T02:52:18.745Z,92.58
2022-09-28T02:55:04.700Z,93.19
2022-09-28T02:58:18.470Z,93.52
2022-09-28T03:01:19.237Z,92.69
2022-09-28T03:04:00.620Z,92.32
2022-09-28T03:06:53.187Z,92.11
2022-09-28T03:09:29.623Z,92.01
2022-09-28T03:12:01.381Z,91.83
2022-09-28T03:14:30.147Z,91.05
2022-09-28T03:16:57.601Z,90.20
2022-09-28T03:19:31.065Z,91.17
2022-09-28T03:21:58.725Z,91.73
2022-09-28T03:24:26.841Z,92.47
2022-09-28T03:26:54.503Z,91.79
2022-09-28T03:29:21.906Z,91.87
2022-09-28T03:31:50.315Z,92.23
2022-09-28T03:34:19.985Z,92.61
2022-09-28T03:36:52.636Z,92.74
2022-09-28T03:39:20.026Z,92.54
2022-09-28T03:41:47.282Z,92.54
2022-09-28T03:44:14.905Z,91.61
2022-09-28T03:46:42.346Z,91.71
2022-09-28T03:49:10.916Z,91.88
2022-09-28T03:51:38.477Z,91.59
2022-09-28T03:54:06.081Z,91.50
2022-09-28T03:56:33.262Z,91.24
2022-09-28T03:59:03.149Z,91.53
2022-09-28T04:01:30.351Z,91.70
2022-09-28T04:03:57.586Z,91.74
2022-09-28T04:06:27.905Z,91.90
2022-09-28T04:08:55.068Z,91.92
2022-09-28T04:11:22.385Z,92.10
2022-09-28T04:13:50.665Z,92.33
2022-09-28T04:16:18.121Z,92.15
2022-09-28T04:21:43.102Z,91.80
2022-09-28T04:24:10.706Z,91.70
2022-09-28T04:26:38.078Z,91.57
2022-09-28T04:29:06.830Z,91.38
2022-09-28T04:31:51.821Z,91.20
2022-09-28T04:34:23.151Z,90.62
2022-09-28T04:36:50.984Z,91.14
2022-09-28T04:39:19.295Z,90.90
2022-09-28T04:41:51.179Z,91.32
2022-09-28T04:44:22.122Z,90.68
2022-09-28T04:46:52.398Z,90.32
2022-09-28T04:49:23.018Z,90.44
2022-09-28T04:51:54.026Z,90.32
2022-09-28T04:54:21.938Z,90.26
2022-09-28T04:56:49.183Z,90.75
2022-09-28T04:59:39.351Z,90.83
2022-09-28T05:02:07.065Z,90.79
2022-09-28T05:04:34.391Z,90.45
2022-09-28T05:07:01.675Z,90.52
2022-09-28T05:09:28.738Z,89.39
2022-09-28T05:11:56.222Z,90.33
2022-09-28T05:14:23.562Z,90.49
2022-09-28T05:16:53.088Z,89.98
2022-09-28T05:19:21.307Z,89.53
2022-09-28T05:21:49.042Z,89.75
2022-09-28T05:24:16.584Z,90.06
2022-09-28T05:26:43.781Z,89.74
2022-09-28T05:29:11.175Z,88.86
2022-09-28T05:31:38.581Z,88.70
2022-09-28T05:34:05.894Z,89.80
2022-09-28T05:36:33.128Z,88.90
2022-09-28T05:39:00.680Z,88.31
2022-09-28T05:41:27.943Z,87.60
2022-09-28T05:43:55.119Z,88.83
2022-09-28T05:46:22.831Z,89.51
2022-09-28T05:48:51.018Z,87.97
2022-09-28T05:51:18.341Z,85.84
2022-09-28T05:53:51.740Z,85.37
2022-09-28T05:56:18.944Z,83.99
2022-09-28T05:58:46.187Z,84.06
2022-09-28T06:01:13.557Z,84.50
2022-09-28T06:03:40.710Z,82.92
2022-09-28T06:06:07.938Z,83.75
2022-09-28T06:08:35.268Z,84.55
2022-09-28T06:11:03.190Z,85.42
2022-09-28T06:13:30.749Z,85.65
2022-09-28T06:15:57.897Z,86.98
2022-09-28T06:18:24.945Z,87.10
2022-09-28T06:20:52.196Z,87.21
2022-09-28T06:23:21.742Z,87.23
2022-09-28T06:25:48.762Z,87.16
2022-09-28T06:28:16.788Z,87.67
2022-09-28T06:30:44.400Z,87.52
2022-09-28T06:33:13.614Z,87.46
2022-09-28T06:35:40.879Z,87.94
2022-09-28T06:38:08.082Z,87.84
2022-09-28T06:40:35.398Z,87.41
2022-09-28T06:43:08.119Z,85.52
2022-09-28T06:45:35.460Z,85.65
2022-09-28T06:48:03.421Z,83.99
2022-09-28T06:50:34.333Z,84.52
2022-09-28T06:53:02.439Z,84.19
2022-09-28T06:55:30.622Z,85.24
2022-09-28T06:58:07.250Z,85.22
2022-09-28T07:00:36.834Z,84.00
2022-09-28T07:03:06.908Z,85.09
2022-09-28T07:05:36.339Z,83.41
2022-09-28T07:08:05.115Z,84.57
2022-09-28T07:10:33.066Z,83.45
2022-09-28T07:13:04.581Z,84.71
2022-09-28T07:15:32.577Z,84.93
2022-09-28T07:18:04.406Z,84.20
2022-09-28T07:20:49.769Z,84.90
2022-09-28T07:23:20.000Z,84.70
2022-09-28T07:25:47.762Z,84.50
2022-09-28T07:28:15.913Z,84.86
2022-09-28T07:30:43.721Z,85.25
2022-09-28T07:33:16.319Z,85.67
2022-09-28T07:35:54.283Z,85.05
2022-09-28T07:45:03.298Z,84.08
2022-09-28T07:47:34.854Z,85.43
2022-09-28T07:50:02.480Z,84.13
2022-09-28T07:52:54.058Z,83.00
2022-09-28T07:55:21.774Z,83.98
2022-09-28T07:57:55.466Z,83.76
2022-09-28T08:00:23.281Z,84.11
2022-09-28T08:02:50.985Z,83.23
2022-09-28T08:05:18.465Z,80.51
2022-09-28T08:07:45.701Z,80.40
2022-09-28T08:10:13.383Z,78.60
2022-09-28T08:12:40.619Z,78.00
2022-09-28T08:15:14.461Z,77.95
2022-09-28T08:17:50.231Z,76.83
2022-09-28T08:20:17.711Z,75.04
2022-09-28T08:22:49.711Z,72.23
2022-09-28T08:25:17.596Z,69.75
2022-09-28T08:27:48.447Z,70.60
2022-09-28T08:30:16.911Z,69.13
2022-09-28T08:32:49.395Z,69.08
2022-09-28T08:37:58.438Z,72.18
2022-09-28T08:40:26.529Z,70.34
2022-09-28T08:42:58.875Z,71.03
2022-09-28T08:45:32.477Z,70.90
2022-09-28T08:48:13.039Z,68.74
2022-09-28T08:50:52.737Z,68.36
2022-09-28T08:53:40.784Z,66.59
2022-09-28T08:56:14.588Z,67.07
2022-09-28T08:58:46.719Z,63.81
2022-09-28T09:01:19.263Z,62.93
2022-09-28T09:03:49.196Z,61.38
2022-09-28T09:07:07.201Z,59.79
2022-09-28T09:09:43.919Z,60.16
2022-09-28T09:12:33.152Z,54.15
2022-09-28T09:15:19.514Z,53.83
2022-09-28T09:17:52.903Z,55.35
2022-09-28T09:20:49.640Z,52.61
2022-09-28T09:23:23.108Z,52.46
2022-09-28T09:25:52.424Z,52.19
2022-09-28T09:28:36.308Z,50.91
2022-09-28T09:31:33.635Z,54.17
2022-09-28T09:34:19.026Z,55.93
2022-09-28T09:37:19.777Z,53.17
2022-09-28T09:40:22.372Z,54.71
2022-09-28T09:42:59.807Z,51.66
2022-09-28T09:45:48.490Z,53.33
2022-09-28T09:48:24.778Z,50.53
2022-09-28T09:51:02.712Z,48.59
2022-09-28T09:53:38.871Z,48.04
2022-09-28T09:56:21.109Z,47.54
2022-09-28T09:58:53.955Z,45.04
2022-09-28T10:01:33.410Z,45.33
2022-09-28T10:04:01.468Z,47.68
2022-09-28T10:06:36.235Z,45.42
2022-09-28T10:09:41.674Z,50.98
2022-09-28T10:12:10.579Z,47.00
2022-09-28T10:14:37.907Z,46.46
2022-09-28T10:17:05.819Z,45.31
2022-09-28T10:19:35.355Z,48.70
2022-09-28T10:22:06.517Z,50.25
2022-09-28T10:24:42.066Z,48.31
2022-09-28T10:27:15.587Z,44.60
2022-09-28T10:29:55.021Z,45.34
2022-09-28T10:32:27.401Z,47.17
2022-09-28T10:35:13.464Z,49.36
2022-09-28T10:37:55.992Z,51.96
2022-09-28T10:40:28.288Z,55.44
2022-09-28T10:43:04.231Z,55.09
2022-09-28T10:45:36.640Z,55.78
2022-09-28T10:48:06.993Z,56.19
2022-09-28T10:50:34.187Z,56.72
2022-09-28T10:53:20.391Z,57.10
2022-09-28T10:56:18.419Z,52.18
2022-09-28T10:58:46.357Z,56.14
2022-09-28T11:01:24.584Z,51.56
2022-09-28T11:03:57.722Z,51.65
2022-09-28T11:06:30.952Z,53.17
2022-09-28T11:09:04.524Z,51.06
2022-09-28T11:11:39.968Z,49.43
2022-09-28T11:14:42.512Z,49.42
2022-09-28T11:17:28.462Z,52.13
2022-09-28T11:20:26.810Z,51.51
2022-09-28T11:23:17.803Z,50.49
2022-09-28T11:26:04.266Z,52.41
2022-09-28T11:28:37.554Z,53.13
2022-09-28T11:31:09.014Z,53.53
2022-09-28T11:33:42.561Z,50.26
2022-09-28T11:36:15.474Z,52.79
2022-09-28T11:39:13.533Z,51.03
2022-09-28T11:41:52.791Z,51.38
2022-09-28T11:44:49.027Z,46.53
2022-09-28T11:47:34.579Z,46.73
2022-09-28T11:50:41.476Z,45.99
2022-09-28T11:53:23.907Z,45.85
2022-09-28T11:56:09.004Z,46.78
2022-09-28T11:58:43.536Z,48.58
2022-09-28T12:01:35.991Z,44.06
2022-09-28T12:04:13.260Z,44.98
2022-09-28T12:06:54.044Z,44.55
2022-09-28T12:09:34.229Z,43.68
2022-09-28T12:12:06.099Z,43.96
2022-09-28T12:15:24.659Z,43.05
2022-09-28T12:17:53.816Z,42.94
2022-09-28T12:20:44.061Z,44.01
2022-09-28T12:23:27.284Z,43.65
2022-09-28T12:26:56.606Z,43.99
2022-09-28T12:29:22.040Z,42.96
2022-09-28T12:32:10.424Z,43.92
2022-09-28T12:34:40.521Z,44.23
2022-09-28T12:38:41.320Z,43.66
2022-09-28T12:41:12.265Z,43.22
2022-09-28T12:43:48.319Z,44.14
2022-09-28T12:47:04.810Z,44.46
2022-09-28T12:53:23.947Z,43.45
2022-09-28T12:56:20.807Z,43.10
2022-09-28T12:59:15.551Z,43.45
2022-09-28T13:01:53.019Z,43.18
2022-09-28T13:04:44.893Z,43.94
2022-09-28T13:07:33.950Z,44.14
2022-09-28T13:10:26.776Z,43.92
2022-09-28T13:13:43.002Z,43.52
2022-09-28T13:16:19.017Z,43.49
2022-09-28T13:19:04.303Z,43.84
2022-09-28T13:21:58.721Z,44.21
2022-09-28T13:24:33.781Z,43.87
2022-09-28T13:27:30.900Z,44.17
2022-09-28T13:30:03.218Z,43.87
2022-09-28T13:32:52.966Z,44.34
2022-09-28T13:35:21.195Z,44.31
2022-09-28T13:38:11.866Z,44.93
2022-09-28T13:41:06.960Z,45.19
2022-09-28T13:44:06.526Z,44.27
2022-09-28T13:47:17.768Z,44.49
2022-09-28T13:50:14.027Z,44.61
2022-09-28T13:53:01.514Z,43.84
2022-09-28T13:55:53.468Z,44.08
2022-09-28T13:58:21.163Z,44.72
2022-09-28T14:00:54.502Z,43.50
2022-09-28T14:03:35.796Z,43.68
2022-09-28T14:06:08.325Z,44.97
2022-09-28T14:08:47.676Z,43.10
2022-09-28T14:11:42.938Z,43.89
2022-09-28T14:28:19.658Z,44.05
2022-09-28T14:31:22.203Z,43.28
2022-09-28T14:34:34.512Z,44.06
2022-09-28T14:39:47.412Z,44.14
2022-09-28T14:42:18.460Z,44.19
2022-09-28T14:45:06.684Z,44.67
2022-09-28T14:47:42.183Z,45.47
2022-09-28T14:50:24.083Z,45.27
2022-09-28T14:53:26.631Z,46.01
2022-09-28T14:56:00.131Z,46.73
2022-09-28T14:58:29.419Z,47.54
2022-09-28T15:01:03.097Z,47.51
2022-09-28T15:03:34.036Z,47.38
2022-09-28T15:06:01.162Z,47.31
2022-09-28T15:08:40.839Z,47.91
2022-09-28T15:11:30.865Z,47.58
2022-09-28T15:14:08.153Z,47.56
2022-09-28T15:16:38.576Z,48.33
2022-09-28T15:19:25.107Z,47.77
2022-09-28T15:21:53.035Z,47.14
2022-09-28T15:24:36.864Z,48.65
2022-09-28T15:33:46.228Z,48.21
2022-09-28T15:36:31.284Z,48.94
2022-09-28T15:39:45.732Z,55.23
2022-09-28T15:42:38.717Z,58.53
2022-09-28T15:45:35.547Z,59.42
2022-09-28T15:49:03.311Z,61.13
2022-09-28T15:51:20.006Z,62.63
2022-09-28T15:53:55.564Z,63.74
2022-09-28T15:56:40.307Z,64.06
2022-09-28T15:59:19.416Z,65.23
2022-09-28T16:01:48.342Z,66.30
2022-09-28T16:04:49.073Z,67.19
2022-09-28T16:07:16.157Z,67.86
2022-09-28T16:10:04.951Z,68.36
2022-09-28T16:12:38.085Z,69.00
2022-09-28T16:15:14.067Z,69.66
2022-09-28T16:17:41.427Z,70.63
2022-09-28T16:20:34.644Z,71.00
2022-09-28T16:23:10.257Z,70.48
2022-09-28T16:25:39.205Z,71.07
2022-09-28T16:28:06.760Z,71.24
2022-09-28T16:30:35.145Z,72.18
2022-09-28T16:33:05.465Z,71.75
2022-09-28T16:35:41.441Z,69.59
2022-09-28T16:38:13.939Z,70.21
2022-09-28T16:40:43.805Z,70.13
2022-09-28T16:43:28.023Z,70.96
2022-09-28T16:46:01.752Z,70.77
2022-09-28T16:48:32.078Z,72.37
2022-09-28T16:51:05.390Z,73.19
2022-09-28T16:53:37.942Z,73.75
2022-09-28T16:56:08.751Z,74.16
2022-09-28T16:58:35.991Z,74.13
2022-09-28T17:01:03.404Z,73.98
2022-09-28T17:03:30.796Z,73.82
2022-09-28T17:06:00.355Z,73.64
2022-09-28T17:08:28.055Z,74.01
2022-09-28T17:11:20.226Z,73.23
2022-09-28T17:13:48.065Z,74.23
2022-09-28T17:16:36.803Z,74.33
2022-09-28T17:19:19.782Z,73.46
2022-09-28T17:21:47.501Z,73.84
2022-09-28T17:24:14.609Z,72.82
2022-09-28T17:26:42.128Z,74.06
2022-09-28T17:29:12.947Z,73.05
2022-09-28T17:31:40.560Z,73.03
2022-09-28T17:34:08.398Z,73.90
2022-09-28T17:36:35.899Z,73.85
2022-09-28T17:39:04.071Z,75.28
2022-09-28T17:41:32.024Z,76.45
2022-09-28T17:43:59.318Z,75.47
2022-09-28T17:46:33.009Z,76.16
2022-09-28T17:49:02.244Z,76.43
2022-09-28T17:51:31.580Z,76.48
2022-09-28T17:53:59.781Z,77.56
2022-09-28T17:56:31.873Z,77.27
2022-09-28T17:59:03.165Z,75.86
2022-09-28T18:01:31.297Z,75.84
2022-09-28T18:04:00.882Z,75.58
2022-09-28T18:06:31.711Z,75.65
2022-09-28T18:09:32.560Z,76.36
2022-09-28T18:12:30.561Z,76.35
2022-09-28T18:15:19.444Z,78.06
2022-09-28T18:18:08.978Z,77.15
2022-09-28T18:20:48.382Z,77.17
2022-09-28T18:23:15.782Z,77.03
2022-09-28T18:25:49.953Z,77.02
2022-09-28T18:29:10.073Z,77.87
2022-09-28T18:32:00.113Z,78.48
2022-09-28T18:34:34.864Z,78.76
2022-09-28T18:37:08.785Z,79.01
2022-09-28T18:39:58.899Z,78.65
2022-09-28T18:42:31.191Z,78.28
2022-09-28T19:10:49.301Z,79.33
2022-09-28T19:13:18.823Z,79.53
2022-09-28T19:15:47.732Z,79.82
2022-09-28T19:18:16.841Z,79.23
2022-09-28T19:20:46.231Z,79.56
2022-09-28T19:23:16.759Z,79.41
2022-09-28T19:25:44.280Z,79.05
2022-09-28T19:28:11.422Z,79.47
2022-09-28T19:30:38.800Z,79.27
2022-09-28T19:33:06.200Z,79.71
2022-09-28T19:35:33.424Z,79.59
2022-09-28T19:38:00.823Z,79.14
2022-09-28T19:40:27.925Z,77.85
2022-09-28T19:42:55.354Z,77.37
2022-09-28T19:45:22.705Z,76.68
2022-09-28T19:47:57.307Z,77.73
2022-09-28T19:50:29.315Z,78.52
2022-09-28T19:52:56.659Z,79.17
2022-09-28T19:55:30.185Z,79.80
2022-09-28T19:58:11.141Z,79.60
2022-09-28T20:00:47.419Z,79.71
2022-09-28T20:03:15.597Z,79.67
2022-09-28T20:05:50.186Z,79.29
2022-09-28T20:08:44.045Z,78.74
2022-09-28T20:11:21.511Z,78.69
2022-09-28T20:13:49.104Z,77.88
2022-09-28T20:16:18.260Z,78.11
2022-09-28T20:18:47.671Z,78.78
2022-09-28T20:21:22.676Z,78.57
2022-09-28T20:23:54.199Z,78.47
2022-09-28T20:26:24.426Z,77.87
2022-09-28T20:28:51.714Z,78.12
2022-09-28T20:31:21.642Z,78.75
2022-09-28T20:33:49.713Z,79.19
2022-09-28T20:36:19.907Z,78.68
2022-09-28T20:38:51.672Z,78.88
2022-09-28T20:41:21.430Z,77.82
2022-09-28T20:43:52.259Z,77.64
2022-09-28T20:46:19.754Z,77.63
2022-09-28T20:48:46.979Z,77.84
2022-09-28T20:51:17.181Z,77.01
2022-09-28T20:53:49.374Z,77.28
2022-09-28T20:56:33.954Z,78.18
2022-09-28T20:59:01.039Z,78.76
2022-09-28T21:01:29.825Z,78.55
2022-09-28T21:03:59.672Z,78.73
2022-09-28T21:06:30.758Z,78.52
2022-09-28T21:08:58.757Z,79.20
2022-09-28T21:11:27.757Z,78.27
2022-09-28T21:13:56.831Z,76.72
2022-09-28T21:16:24.779Z,74.99
2022-09-28T21:18:52.424Z,74.42
2022-09-28T21:21:21.961Z,75.11
2022-09-28T21:23:51.922Z,74.33
2022-09-28T21:26:22.823Z,73.77
2022-09-28T21:28:54.874Z,74.99
2022-09-28T21:31:27.732Z,74.90
2022-09-28T21:33:56.185Z,73.88
2022-09-28T21:36:23.391Z,74.46
2022-09-28T21:38:50.870Z,74.04
2022-09-28T21:41:17.938Z,73.82
2022-09-28T21:43:45.957Z,74.49
2022-09-28T21:46:13.693Z,75.31
2022-09-28T21:48:41.000Z,75.85
2022-09-28T21:51:10.635Z,77.00
2022-09-28T21:53:38.423Z,77.52
2022-09-28T21:56:07.878Z,77.35
2022-09-28T21:58:36.018Z,78.46
2022-09-28T22:01:05.403Z,78.47
2022-09-28T22:03:34.041Z,78.98
2022-09-28T22:06:02.116Z,79.28
2022-09-28T22:08:30.148Z,79.59
2022-09-28T22:11:02.622Z,80.16
2022-09-28T22:13:31.106Z,81.00
2022-09-28T22:15:59.005Z,82.21
2022-09-28T22:18:27.991Z,81.48
2022-09-28T22:21:09.238Z,81.42
2022-09-28T22:23:37.426Z,80.25
2022-09-28T22:26:07.793Z,80.17
2022-09-28T22:28:35.790Z,79.76
2022-09-28T22:31:03.096Z,80.07
2022-09-28T22:33:30.360Z,80.01
2022-09-28T22:35:57.558Z,79.62
2022-09-28T22:38:25.031Z,79.44
2022-09-28T22:40:54.170Z,78.76
2022-09-28T22:43:23.523Z,78.79
2022-09-28T22:45:51.081Z,79.01
2022-09-28T22:48:18.154Z,78.90
2022-09-28T22:50:52.305Z,78.14
2022-09-28T22:53:19.683Z,78.38
2022-09-28T22:55:46.662Z,79.09
2022-09-28T22:58:14.378Z,79.62
2022-09-28T23:00:41.565Z,79.62
2022-09-28T23:03:08.680Z,79.43
2022-09-28T23:05:36.158Z,79.78
2022-09-28T23:08:03.826Z,80.08
2022-09-28T23:10:31.023Z,79.04
2022-09-28T23:12:58.389Z,79.96
2022-09-28T23:15:25.424Z,80.62
2022-09-28T23:17:53.078Z,80.06
2022-09-28T23:20:21.506Z,79.67
2022-09-28T23:22:49.515Z,79.22
2022-09-28T23:25:17.943Z,79.36
2022-09-28T23:27:49.134Z,79.78
2022-09-28T23:30:18.641Z,80.12
2022-09-28T23:32:45.944Z,79.67
2022-09-28T23:35:14.403Z,79.91
2022-09-28T23:37:41.424Z,79.85
2022-09-28T23:40:08.795Z,80.27
2022-09-28T23:42:36.072Z,80.17
2022-09-28T23:45:03.068Z,79.58
2022-09-28T23:47:30.616Z,79.19
2022-09-28T23:49:57.841Z,79.58
2022-09-28T23:52:24.901Z,80.53
2022-09-28T23:54:52.385Z,80.00
2022-09-28T23:57:19.602Z,80.20
2022-09-28T23:59:46.641Z,79.74
